createdAt,value
2018-11-04T00:00:30.698Z,18.47
2018-11-04T00:02:59.456Z,38.47
2018-11-04T00:05:28.506Z,34.17
2018-11-04T00:07:57.330Z,16.17
2018-11-04T00:10:26.019Z,14.83
2018-11-04T00:12:54.734Z,13.53
2018-11-04T00:15:23.489Z,13.73
2018-11-04T00:17:52.323Z,10.83
2018-11-04T00:20:21.071Z,15.50
2018-11-04T00:22:49.906Z,14.50
2018-11-04T00:25:18.621Z,16.00
2018-11-04T00:27:47.410Z,14.03
2018-11-04T00:30:16.305Z,12.93
2018-11-04T00:32:45.097Z,14.10
2018-11-04T00:35:13.931Z,12.73
2018-11-04T00:37:42.758Z,14.20
2018-11-04T00:40:11.649Z,19.80
2018-11-04T00:42:40.561Z,33.20
2018-11-04T00:45:09.751Z,18.57
2018-11-04T00:47:39.028Z,12.97
2018-11-04T00:50:10.333Z,12.30
2018-11-04T00:52:39.165Z,14.20
2018-11-04T00:55:08.342Z,17.20
2018-11-04T00:57:37.208Z,11.90
2018-11-04T01:00:09.499Z,10.33
2018-11-04T01:02:38.264Z,13.23
2018-11-04T01:05:07.557Z,10.70
2018-11-04T01:07:36.618Z,10.30
2018-11-04T01:10:05.984Z,11.47
2018-11-04T01:12:34.878Z,10.90
2018-11-04T01:15:03.679Z,11.97
2018-11-04T01:17:32.514Z,14.93
2018-11-04T01:20:01.347Z,21.37
2018-11-04T01:22:30.115Z,17.40
2018-11-04T01:24:59.226Z,15.50
2018-11-04T01:27:28.032Z,13.20
2018-11-04T01:29:57.315Z,14.27
2018-11-04T01:32:26.123Z,13.60
2018-11-04T01:34:54.953Z,11.13
2018-11-04T01:37:23.783Z,15.30
2018-11-04T01:39:52.587Z,11.47
2018-11-04T01:42:21.346Z,11.07
2018-11-04T01:44:50.121Z,10.57
2018-11-04T01:47:19.318Z,12.13
2018-11-04T01:49:48.020Z,12.17
2018-11-04T01:52:16.773Z,13.07
2018-11-04T01:54:45.529Z,20.00
2018-11-04T01:57:14.830Z,26.03
2018-11-04T01:59:43.815Z,30.70
2018-11-04T02:02:12.765Z,45.67
2018-11-04T02:04:42.335Z,23.60
2018-11-04T02:07:11.111Z,14.87
2018-11-04T02:09:40.015Z,12.83
2018-11-04T02:12:08.781Z,11.57
2018-11-04T02:14:37.488Z,15.53
2018-11-04T02:17:06.200Z,11.97
2018-11-04T02:19:34.919Z,10.07
2018-11-04T02:22:03.657Z,11.70
2018-11-04T02:24:32.475Z,13.80
2018-11-04T02:27:01.202Z,15.27
2018-11-04T02:29:29.938Z,11.43
2018-11-04T02:31:58.697Z,13.47
2018-11-04T02:34:27.665Z,14.27
2018-11-04T02:36:56.471Z,15.70
2018-11-04T02:39:26.358Z,13.43
2018-11-04T02:41:55.084Z,14.00
2018-11-04T02:44:23.851Z,14.60
2018-11-04T02:46:52.585Z,14.13
2018-11-04T02:49:21.735Z,14.93
2018-11-04T02:51:50.465Z,20.70
2018-11-04T02:54:19.189Z,15.37
2018-11-04T02:56:47.948Z,14.50
2018-11-04T02:59:16.686Z,22.23
2018-11-04T03:01:45.468Z,19.37
2018-11-04T03:04:14.193Z,19.60
2018-11-04T03:06:43.845Z,17.00
2018-11-04T03:09:12.777Z,17.40
2018-11-04T03:11:41.461Z,15.30
2018-11-04T03:14:10.245Z,19.27
2018-11-04T03:16:38.996Z,19.93
2018-11-04T03:19:07.768Z,17.77
2018-11-04T03:21:36.500Z,21.57
2018-11-04T03:24:05.463Z,23.90
2018-11-04T03:26:34.455Z,20.17
2018-11-04T03:29:03.246Z,22.23
2018-11-04T03:31:32.045Z,24.23
2018-11-04T03:34:00.800Z,27.87
2018-11-04T03:36:29.553Z,21.83
2018-11-04T03:38:58.275Z,22.80
2018-11-04T03:41:27.067Z,25.43
2018-11-04T03:43:55.765Z,28.57
2018-11-04T03:46:24.519Z,29.70
2018-11-04T03:48:53.196Z,24.37
2018-11-04T03:51:21.916Z,28.23
2018-11-04T03:53:50.716Z,24.83
2018-11-04T03:56:19.559Z,21.77
2018-11-04T03:58:48.267Z,23.63
2018-11-04T04:01:17.272Z,28.50
2018-11-04T04:03:46.122Z,23.97
2018-11-04T04:06:14.932Z,26.77
2018-11-04T04:08:43.652Z,23.40
2018-11-04T04:11:12.481Z,20.80
2018-11-04T04:13:41.158Z,19.17
2018-11-04T04:16:09.909Z,21.83
2018-11-04T04:18:38.643Z,23.23
2018-11-04T04:21:08.657Z,25.97
2018-11-04T04:23:39.015Z,25.80
2018-11-04T04:26:09.159Z,23.90
2018-11-04T04:28:37.987Z,23.90
2018-11-04T04:31:06.705Z,24.50
2018-11-04T04:33:35.435Z,28.10
2018-11-04T04:36:05.069Z,22.83
2018-11-04T04:38:33.820Z,21.63
2018-11-04T04:41:02.576Z,20.43
2018-11-04T04:43:31.384Z,24.37
2018-11-04T04:46:00.193Z,21.13
2018-11-04T04:48:28.890Z,23.67
2018-11-04T04:50:57.642Z,22.50
2018-11-04T04:53:26.424Z,19.83
2018-11-04T04:55:56.603Z,26.00
2018-11-04T04:58:31.781Z,23.37
2018-11-04T05:01:00.488Z,21.40
2018-11-04T05:03:29.259Z,19.67
2018-11-04T05:05:58.011Z,22.40
2018-11-04T05:08:26.756Z,21.60
2018-11-04T05:10:55.529Z,21.73
2018-11-04T05:13:24.228Z,21.80
2018-11-04T05:15:53.045Z,22.13
2018-11-04T05:18:21.766Z,23.93
2018-11-04T05:20:50.995Z,24.03
2018-11-04T05:23:19.702Z,22.20
2018-11-04T05:25:48.389Z,21.20
2018-11-04T05:28:17.151Z,23.13
2018-11-04T05:30:52.321Z,22.63
2018-11-04T05:33:21.028Z,23.50
2018-11-04T05:35:49.735Z,23.80
2018-11-04T05:38:18.597Z,22.23
2018-11-04T05:40:47.263Z,27.13
2018-11-04T05:43:16.005Z,26.67
2018-11-04T05:45:44.691Z,30.10
2018-11-04T05:48:13.390Z,25.00
2018-11-04T05:50:48.896Z,25.43
2018-11-04T05:53:17.622Z,29.60
2018-11-04T05:55:46.354Z,32.37
2018-11-04T05:58:15.173Z,25.53
2018-11-04T06:00:43.936Z,25.67
2018-11-04T06:03:12.639Z,27.23
2018-11-04T06:05:41.379Z,29.93
2018-11-04T06:08:10.167Z,25.10
2018-11-04T06:10:38.904Z,30.63
2018-11-04T06:13:07.631Z,28.33
2018-11-04T06:15:36.371Z,28.17
2018-11-04T06:18:05.311Z,30.60
2018-11-04T06:20:34.019Z,32.03
2018-11-04T06:23:02.804Z,29.67
2018-11-04T06:25:32.336Z,28.13
2018-11-04T06:28:01.058Z,26.00
2018-11-04T06:30:29.777Z,29.80
2018-11-04T06:32:58.572Z,33.67
2018-11-04T06:35:27.422Z,35.40
2018-11-04T06:37:56.221Z,33.33
2018-11-04T06:40:25.077Z,29.20
2018-11-04T06:42:53.794Z,35.03
2018-11-04T06:45:22.820Z,31.03
2018-11-04T06:47:51.713Z,35.90
2018-11-04T06:50:20.416Z,33.77
2018-11-04T06:52:50.308Z,36.93
2018-11-04T06:55:18.995Z,36.77
2018-11-04T06:57:47.703Z,28.63
2018-11-04T07:00:16.408Z,35.93
2018-11-04T07:02:45.195Z,35.73
2018-11-04T07:05:13.968Z,31.67
2018-11-04T07:07:42.731Z,38.23
2018-11-04T07:10:11.459Z,35.80
2018-11-04T07:12:40.206Z,29.77
2018-11-04T07:15:08.917Z,27.30
2018-11-04T07:17:37.642Z,29.07
2018-11-04T07:20:07.085Z,26.43
2018-11-04T07:22:35.712Z,30.80
2018-11-04T07:25:04.884Z,30.57
2018-11-04T07:27:33.700Z,26.47
2018-11-04T07:30:02.704Z,26.80
2018-11-04T07:32:31.526Z,25.03
2018-11-04T07:35:00.206Z,29.73
2018-11-04T07:37:28.948Z,25.60
2018-11-04T07:39:57.816Z,24.67
2018-11-04T07:42:26.782Z,26.40
2018-11-04T07:44:55.708Z,28.53
2018-11-04T07:47:31.882Z,26.60
2018-11-04T07:50:00.840Z,30.13
2018-11-04T07:52:29.588Z,26.17
2018-11-04T07:54:58.447Z,30.50
2018-11-04T07:57:27.189Z,34.20
2018-11-04T07:59:56.053Z,24.53
2018-11-04T08:02:24.819Z,26.43
2018-11-04T08:04:53.691Z,26.63
2018-11-04T08:07:22.559Z,26.57
2018-11-04T08:09:51.254Z,24.40
2018-11-04T08:12:20.368Z,21.20
2018-11-04T08:14:49.108Z,23.67
2018-11-04T08:17:18.045Z,23.30
2018-11-04T08:22:26.407Z,23.17
2018-11-04T08:25:01.043Z,25.27
2018-11-04T08:27:45.851Z,26.03
2018-11-04T08:30:15.253Z,23.33
2018-11-04T08:32:50.735Z,24.07
2018-11-04T08:35:21.463Z,22.40
2018-11-04T08:37:51.374Z,24.83
2018-11-04T08:43:03.392Z,25.17
2018-11-04T08:45:32.752Z,25.80
2018-11-04T08:48:01.851Z,22.60
2018-11-04T08:50:30.678Z,24.33
2018-11-04T08:55:38.768Z,24.40
2018-11-04T08:58:07.593Z,22.90
2018-11-04T09:00:36.315Z,29.87
2018-11-04T09:03:05.164Z,26.40
2018-11-04T09:05:34.026Z,26.43
2018-11-04T09:08:02.998Z,23.00
2018-11-04T09:10:31.834Z,21.77
2018-11-04T09:13:00.658Z,25.83
2018-11-04T09:15:31.110Z,23.33
2018-11-04T09:18:01.205Z,21.77
2018-11-04T09:20:30.116Z,21.77
2018-11-04T09:22:59.538Z,22.67
2018-11-04T09:25:28.572Z,23.57
2018-11-04T09:30:33.883Z,22.87
2018-11-04T09:33:08.633Z,19.67
2018-11-04T09:35:51.437Z,22.27
2018-11-04T09:38:21.283Z,22.93
2018-11-04T09:40:55.279Z,22.63
2018-11-04T09:43:24.288Z,26.20
2018-11-04T09:45:53.475Z,23.43
2018-11-04T09:48:22.858Z,22.20
2018-11-04T09:50:51.604Z,25.30
2018-11-04T09:53:21.780Z,27.13
2018-11-04T09:55:50.537Z,24.57
2018-11-04T09:58:19.337Z,22.70
2018-11-04T10:00:48.187Z,24.83
2018-11-04T10:03:17.071Z,25.00
2018-11-04T10:05:45.819Z,27.80
2018-11-04T10:08:15.350Z,22.73
2018-11-04T10:10:44.363Z,25.67
2018-11-04T10:13:13.281Z,26.40
2018-11-04T10:15:42.269Z,27.20
2018-11-04T10:18:11.088Z,29.63
2018-11-04T10:20:40.317Z,27.07
2018-11-04T10:23:08.811Z,25.50
2018-11-04T10:25:37.656Z,28.20
2018-11-04T10:28:06.389Z,30.03
2018-11-04T10:30:35.903Z,29.63
2018-11-04T10:33:05.362Z,28.30
2018-11-04T10:35:35.953Z,30.63
2018-11-04T10:38:05.128Z,27.87
2018-11-04T10:40:35.180Z,31.30
2018-11-04T10:43:04.054Z,33.30
2018-11-04T10:45:32.816Z,31.50
2018-11-04T10:48:01.538Z,34.77
2018-11-04T10:50:38.051Z,37.80
2018-11-04T10:53:12.013Z,34.03
2018-11-04T10:55:42.464Z,33.20
2018-11-04T10:58:16.612Z,34.33
2018-11-04T11:03:34.864Z,34.33
2018-11-04T11:06:07.769Z,36.43
2018-11-04T11:08:41.034Z,36.57
2018-11-04T11:11:18.530Z,34.87
2018-11-04T11:13:47.867Z,36.70
2018-11-04T11:16:16.616Z,39.60
2018-11-04T11:18:45.442Z,34.43
2018-11-04T11:21:14.341Z,33.53
2018-11-04T11:23:43.352Z,34.73
2018-11-04T11:31:37.829Z,39.43
2018-11-04T11:34:06.596Z,35.10
2018-11-04T11:36:35.392Z,35.27
2018-11-04T11:39:07.572Z,37.40
2018-11-04T11:41:36.711Z,38.27
2018-11-04T11:44:05.927Z,36.20
2018-11-04T11:46:34.902Z,37.97
2018-11-04T11:49:03.689Z,34.63
2018-11-04T11:51:32.491Z,36.20
2018-11-04T11:54:02.161Z,40.97
2018-11-04T11:56:31.216Z,34.97
2018-11-04T11:59:00.078Z,43.73
2018-11-04T12:01:29.414Z,40.00
2018-11-04T12:04:01.059Z,36.97
2018-11-04T12:06:31.999Z,40.73
2018-11-04T12:09:02.412Z,45.23
2018-11-04T12:11:32.607Z,41.07
2018-11-04T12:14:02.674Z,43.23
2018-11-04T12:16:32.293Z,48.43
2018-11-04T12:19:02.589Z,46.13
2018-11-04T12:21:31.327Z,45.30
2018-11-04T12:24:00.058Z,46.77
2018-11-04T12:26:28.883Z,49.70
2018-11-04T12:28:57.644Z,45.57
2018-11-04T12:31:26.419Z,44.73
2018-11-04T12:33:55.333Z,43.60
2018-11-04T12:36:25.414Z,45.50
2018-11-04T12:38:55.485Z,45.07
2018-11-04T12:44:02.281Z,42.23
2018-11-04T12:46:31.063Z,48.63
2018-11-04T12:49:01.172Z,45.03
2018-11-04T12:51:30.879Z,47.83
2018-11-04T12:54:00.789Z,42.53
2018-11-04T12:56:34.466Z,40.87
2018-11-04T12:59:10.154Z,41.63
2018-11-04T13:01:39.009Z,45.90
2018-11-04T13:04:08.288Z,44.17
2018-11-04T13:06:37.121Z,50.57
2018-11-04T13:09:07.796Z,45.70
2018-11-04T13:11:37.566Z,47.80
2018-11-04T13:14:06.720Z,44.57
2018-11-04T13:16:36.432Z,45.83
2018-11-04T13:19:06.430Z,44.17
2018-11-04T13:21:35.748Z,45.20
2018-11-04T13:24:04.600Z,47.00
2018-11-04T13:26:33.298Z,43.93
2018-11-04T13:29:02.948Z,46.83
2018-11-04T13:31:31.692Z,43.50
2018-11-04T13:34:00.399Z,40.70
2018-11-04T13:36:29.215Z,45.40
2018-11-04T13:38:58.130Z,42.60
2018-11-04T13:41:27.488Z,42.67
2018-11-04T13:44:02.396Z,39.33
2018-11-04T13:46:31.124Z,41.10
2018-11-04T13:48:59.869Z,40.73
2018-11-04T13:51:28.845Z,46.03
2018-11-04T13:53:59.883Z,48.27
2018-11-04T13:56:28.661Z,48.70
2018-11-04T13:58:58.107Z,43.47
2018-11-04T14:01:27.404Z,43.20
2018-11-04T14:03:56.098Z,44.43
2018-11-04T14:06:24.797Z,46.13
2018-11-04T14:11:29.092Z,41.43
2018-11-04T14:14:05.552Z,41.33
2018-11-04T14:16:34.747Z,40.50
2018-11-04T14:19:03.451Z,50.40
2018-11-04T14:21:32.228Z,38.80
2018-11-04T14:24:00.963Z,38.77
2018-11-04T14:26:29.675Z,40.10
2018-11-04T14:28:58.466Z,45.43
2018-11-04T14:31:27.211Z,45.63
2018-11-04T14:33:56.304Z,39.77
2018-11-04T14:36:25.033Z,39.27
2018-11-04T14:38:53.720Z,37.13
2018-11-04T14:41:22.452Z,42.10
2018-11-04T14:43:52.334Z,38.77
2018-11-04T14:46:21.813Z,40.90
2018-11-04T14:48:50.522Z,40.47
2018-11-04T14:51:20.597Z,40.30
2018-11-04T14:53:49.462Z,44.00
2018-11-04T14:56:18.126Z,49.37
2018-11-04T14:58:47.239Z,45.53
2018-11-04T15:01:16.120Z,49.40
2018-11-04T15:03:44.813Z,46.23
2018-11-04T15:06:13.908Z,52.23
2018-11-04T15:08:42.612Z,46.13
2018-11-04T15:11:11.327Z,47.60
2018-11-04T15:13:41.275Z,48.17
2018-11-04T15:16:10.092Z,47.37
2018-11-04T15:18:39.479Z,44.97
2018-11-04T15:21:08.959Z,47.73
2018-11-04T15:23:40.542Z,49.27
2018-11-04T15:26:10.741Z,45.73
2018-11-04T15:28:40.370Z,46.17
2018-11-04T15:31:09.116Z,48.97
2018-11-04T15:33:37.912Z,44.37
2018-11-04T15:36:07.129Z,48.93
2018-11-04T15:38:36.008Z,49.80
2018-11-04T15:41:05.665Z,48.30
2018-11-04T15:43:35.069Z,47.97
2018-11-04T15:46:04.702Z,53.27
2018-11-04T15:48:33.505Z,54.20
2018-11-04T15:51:06.520Z,49.27
2018-11-04T15:53:36.880Z,52.67
2018-11-04T15:56:08.530Z,52.50
2018-11-04T15:58:37.291Z,52.53
2018-11-04T16:01:06.097Z,58.50
2018-11-04T16:03:39.429Z,56.87
2018-11-04T16:06:09.783Z,56.57
2018-11-04T16:08:38.606Z,56.17
2018-11-04T16:11:08.418Z,58.73
2018-11-04T16:13:40.018Z,60.93
2018-11-04T16:16:08.756Z,58.73
2018-11-04T16:18:37.703Z,59.63
2018-11-04T16:21:07.389Z,57.47
2018-11-04T16:26:23.150Z,63.37
2018-11-04T16:28:52.078Z,67.13
2018-11-04T16:31:27.720Z,63.20
2018-11-04T16:33:56.461Z,64.60
2018-11-04T16:36:25.973Z,65.43
2018-11-04T16:38:56.268Z,65.93
2018-11-04T16:41:26.302Z,76.37
2018-11-04T16:46:32.230Z,73.07
2018-11-04T16:51:39.350Z,80.33
2018-11-04T16:54:14.070Z,85.93
2018-11-04T16:56:44.790Z,82.37
2018-11-04T16:59:15.058Z,90.70
2018-11-04T17:04:38.308Z,95.17
2018-11-04T17:07:09.101Z,92.70
2018-11-04T17:09:38.658Z,94.60
2018-11-04T17:12:07.517Z,91.60
2018-11-04T17:14:37.905Z,92.93
2018-11-04T17:17:07.449Z,108.77
2018-11-04T17:19:38.542Z,101.87
2018-11-04T17:24:51.914Z,108.93
2018-11-04T17:27:32.187Z,121.10
2018-11-04T17:30:11.390Z,113.27
2018-11-04T17:32:40.560Z,109.30
2018-11-04T17:35:10.523Z,127.73
2018-11-04T17:37:39.575Z,118.60
2018-11-04T17:40:14.227Z,122.77
2018-11-04T17:42:52.399Z,124.97
2018-11-04T17:45:33.461Z,113.93
2018-11-04T17:48:02.825Z,112.07
2018-11-04T17:50:31.612Z,122.63
2018-11-04T17:53:00.427Z,118.13
2018-11-04T17:55:36.019Z,124.53
2018-11-04T17:58:06.971Z,129.47
2018-11-04T18:00:41.048Z,127.50
2018-11-04T18:03:15.917Z,123.10
2018-11-04T18:05:45.313Z,119.23
2018-11-04T18:08:14.212Z,119.73
2018-11-04T18:10:44.016Z,124.77
2018-11-04T18:13:12.791Z,126.60
2018-11-04T18:15:41.577Z,121.87
2018-11-04T18:18:10.445Z,117.50
2018-11-04T18:20:40.450Z,122.47
2018-11-04T18:23:09.273Z,123.03
2018-11-04T18:25:38.997Z,113.77
2018-11-04T18:28:09.080Z,117.90
2018-11-04T18:30:38.112Z,120.00
2018-11-04T18:33:07.075Z,123.50
2018-11-04T18:35:36.236Z,127.07
2018-11-04T18:38:05.697Z,116.27
2018-11-04T18:40:35.664Z,125.00
2018-11-04T18:43:05.798Z,125.57
2018-11-04T18:45:36.192Z,134.63
2018-11-04T18:48:05.581Z,130.57
2018-11-04T18:50:34.753Z,116.03
2018-11-04T18:53:03.528Z,121.33
2018-11-04T18:55:32.659Z,113.37
2018-11-04T18:58:01.420Z,114.53
2018-11-04T19:00:30.541Z,115.33
2018-11-04T19:02:59.309Z,109.97
2018-11-04T19:05:28.164Z,117.13
2018-11-04T19:07:56.942Z,111.43
2018-11-04T19:10:25.733Z,119.77
2018-11-04T19:12:54.489Z,112.33
2018-11-04T19:15:23.462Z,118.43
2018-11-04T19:17:52.278Z,117.17
2018-11-04T19:20:21.551Z,111.60
2018-11-04T19:22:51.968Z,111.53
2018-11-04T19:25:21.479Z,109.53
2018-11-04T19:27:52.540Z,108.27
2018-11-04T19:30:22.262Z,111.10
2018-11-04T19:32:51.072Z,117.87
2018-11-04T19:35:21.443Z,110.40
2018-11-04T19:37:56.960Z,119.30
2018-11-04T19:40:25.874Z,109.23
2018-11-04T19:42:54.726Z,112.87
2018-11-04T19:45:23.599Z,113.90
2018-11-04T19:47:52.770Z,102.43
2018-11-04T19:50:23.854Z,118.43
2018-11-04T19:52:58.049Z,116.00
2018-11-04T19:55:30.031Z,105.20
2018-11-04T19:57:59.668Z,111.43
2018-11-04T20:00:28.785Z,118.67
2018-11-04T20:03:00.966Z,112.63
2018-11-04T20:05:30.764Z,104.90
2018-11-04T20:07:59.677Z,107.47
2018-11-04T20:10:28.414Z,112.00
2018-11-04T20:13:02.808Z,106.67
2018-11-04T20:15:32.720Z,103.20
2018-11-04T20:18:05.848Z,105.23
2018-11-04T20:20:35.121Z,100.47
2018-11-04T20:23:04.079Z,109.57
2018-11-04T20:25:38.554Z,99.80
2018-11-04T20:28:07.392Z,102.00
2018-11-04T20:30:36.436Z,99.20
2018-11-04T20:33:08.966Z,103.10
2018-11-04T20:35:37.850Z,102.83
2018-11-04T20:38:06.808Z,107.37
2018-11-04T20:40:40.996Z,109.70
2018-11-04T20:43:09.916Z,120.50
2018-11-04T20:45:38.791Z,107.17
2018-11-04T20:48:13.294Z,103.87
2018-11-04T20:50:47.673Z,103.83
2018-11-04T20:53:16.554Z,109.63
2018-11-04T20:55:51.015Z,112.07
2018-11-04T20:58:19.968Z,100.17
2018-11-04T21:00:48.596Z,113.50
2018-11-04T21:03:17.448Z,109.87
2018-11-04T21:05:46.327Z,102.13
2018-11-04T21:08:15.091Z,105.83
2018-11-04T21:10:43.966Z,106.13
2018-11-04T21:13:12.716Z,113.27
2018-11-04T21:15:41.551Z,106.77
2018-11-04T21:18:10.300Z,114.60
2018-11-04T21:20:39.023Z,114.60
2018-11-04T21:23:07.846Z,113.73
2018-11-04T21:25:36.875Z,119.93
2018-11-04T21:28:05.667Z,133.00
2018-11-04T21:30:34.242Z,118.50
2018-11-04T21:33:02.970Z,120.87
2018-11-04T21:35:32.683Z,118.23
2018-11-04T21:38:01.626Z,127.87
2018-11-04T21:40:30.247Z,138.23
2018-11-04T21:42:59.031Z,127.53
2018-11-04T21:45:27.786Z,126.93
2018-11-04T21:47:56.682Z,128.47
2018-11-04T21:50:25.744Z,137.90
2018-11-04T21:52:54.464Z,132.13
2018-11-04T21:55:23.642Z,138.93
2018-11-04T21:57:52.213Z,137.03
2018-11-04T22:00:21.112Z,135.93
2018-11-04T22:02:50.017Z,143.07
2018-11-04T22:05:19.101Z,137.77
2018-11-04T22:07:47.852Z,134.50
2018-11-04T22:10:16.697Z,134.87
2018-11-04T22:12:45.419Z,126.73
2018-11-04T22:15:14.189Z,128.87
2018-11-04T22:17:42.990Z,140.40
2018-11-04T22:20:12.940Z,130.97
2018-11-04T22:22:41.688Z,134.37
2018-11-04T22:25:11.443Z,130.87
2018-11-04T22:27:40.181Z,147.87
2018-11-04T22:30:10.481Z,132.43
2018-11-04T22:32:39.625Z,137.67
2018-11-04T22:35:09.747Z,128.07
2018-11-04T22:37:38.728Z,123.97
2018-11-04T22:40:08.801Z,128.27
2018-11-04T22:42:37.631Z,114.97
2018-11-04T22:45:07.456Z,107.73
2018-11-04T22:47:36.268Z,115.57
2018-11-04T22:50:08.163Z,102.00
2018-11-04T22:52:37.412Z,101.57
2018-11-04T22:55:06.263Z,96.20
2018-11-04T22:57:35.028Z,100.17
2018-11-04T23:00:04.763Z,96.00
2018-11-04T23:02:33.621Z,95.03
2018-11-04T23:05:37.155Z,89.77
2018-11-04T23:08:06.561Z,93.03
2018-11-04T23:10:35.856Z,86.47
2018-11-04T23:13:04.636Z,83.37
2018-11-04T23:15:33.352Z,84.23
2018-11-04T23:18:02.121Z,83.80
2018-11-04T23:20:30.925Z,88.50
2018-11-04T23:22:59.660Z,88.13
2018-11-04T23:25:28.425Z,86.50
2018-11-04T23:27:57.159Z,98.70
2018-11-04T23:30:25.935Z,89.67
2018-11-04T23:32:54.655Z,85.17
2018-11-04T23:35:23.445Z,79.10
2018-11-04T23:37:52.161Z,80.77
2018-11-04T23:40:20.883Z,86.83
2018-11-04T23:42:49.599Z,91.87
2018-11-04T23:45:18.435Z,85.00
2018-11-04T23:47:47.180Z,93.83
2018-11-04T23:50:17.682Z,83.93
2018-11-04T23:52:46.496Z,84.47
2018-11-04T23:55:15.796Z,95.40
2018-11-04T23:57:44.522Z,96.60
